Time;durP1;ratioP1;P1;durP2;ratioP2;P2;SDS_P1;SDS_P2;PMS_P1;PMS_P2;Temp;Humidity;BMP_temperature;BMP_pressure;BME280_temperature;BME280_humidity;BME280_pressure;Samples;Min_cycle;Max_cycle;Signal;HPM_P1;HPM_P2
2022/09/21 00:01:08;;;;;;;;;;;;;;;11.59;67.08;102131.84;4957782;28;19954;-54
2022/09/21 00:03:33;;;;;;;;;;;;;;;11.59;66.93;102136.28;4962588;28;19921;-54
2022/09/21 00:06:05;;;;;;;;;;;;;;;11.59;66.90;102136.28;4958570;28;20445;-55
2022/09/21 00:08:31;;;;;;;;;;;;;;;11.59;67.08;102136.28;4960034;28;20007;-55
2022/09/21 00:10:56;;;;;;;;;;;;;;;11.58;67.09;102135.41;4956541;28;19926;-53
2022/09/21 00:13:22;;;;;;;;;;;;;;;11.59;67.09;102131.84;4960554;28;20008;-53
2022/09/21 00:15:48;;;;;;;;;;;;;;;11.61;66.97;102130.94;4958126;28;20321;-54
2022/09/21 00:18:13;;;;;;;;;;;;;;;11.61;67.26;102133.56;4960126;28;19922;-53
2022/09/21 00:20:40;;;;;;;;;;;;;;;11.56;66.98;102152.22;4958411;28;19922;-53
2022/09/21 00:23:06;;;;;;;;;;;;;;;11.51;66.96;102155.03;4956790;28;20476;-53
2022/09/21 00:25:31;;;;;;;;;;;;;;;11.49;66.97;102143.69;4959501;28;20001;-53
2022/09/21 00:27:56;;;;;;;;;;;;;;;11.46;66.80;102145.59;4956857;28;19930;-53
2022/09/21 00:30:21;;;;;;;;;;;;;;;11.46;66.92;102145.59;4955715;28;19938;-53
2022/09/21 00:32:47;;;;;;;;;;;;;;;11.45;66.92;102144.72;4958462;28;20426;-53
2022/09/21 00:35:12;;;;;;;;;;;;;;;11.45;66.92;102144.72;4958825;28;19942;-53
2022/09/21 00:37:37;;;;;;;;;;;;;;;11.44;66.95;102146.50;4957999;28;19936;-53
2022/09/21 00:40:03;;;;;;;;;;;;;;;11.45;66.81;102144.72;4958858;28;20468;-53
2022/09/21 00:42:30;;;;;;;;;;;;;;;11.46;67.03;102140.31;4958513;28;20010;-53
2022/09/21 00:44:55;;;;;;;;;;;;;;;11.47;66.80;102144.69;4958300;28;20524;-54
2022/09/21 00:47:24;;;;;;;;;;;;;;;11.47;66.81;102140.25;4962401;28;19930;-53
2022/09/21 00:49:53;;;;;;;;;;;;;;;11.44;66.84;102146.50;4961099;28;19925;-53
2022/09/21 00:52:19;;;;;;;;;;;;;;;11.39;66.99;102156.34;4956128;28;20298;-53
2022/09/21 00:54:49;;;;;;;;;;;;;;;11.39;67.14;102155.50;4958326;28;19934;-53
2022/09/21 00:57:16;;;;;;;;;;;;;;;11.41;67.02;102158.94;4959366;28;19922;-53
2022/09/21 00:59:43;;;;;;;;;;;;;;;11.43;67.10;102157.97;4959354;28;21597;-53
2022/09/21 01:02:08;;;;;;;;;;;;;;;11.47;67.01;102150.78;4960342;28;19926;-53
2022/09/21 01:04:35;;;;;;;;;;;;;;;11.51;67.00;102156.78;4959604;28;19945;-53
2022/09/21 01:07:02;;;;;;;;;;;;;;;11.54;66.98;102160.19;4958872;28;19933;-55
2022/09/21 01:09:28;;;;;;;;;;;;;;;11.55;66.95;102150.50;4958318;28;20421;-53
2022/09/21 01:12:12;;;;;;;;;;;;;;;11.59;67.17;102160.84;4957500;28;21244;-52
2022/09/21 01:14:52;;;;;;;;;;;;;;;11.62;66.98;102156.38;4958161;28;19969;-53
2022/09/21 01:17:56;;;;;;;;;;;;;;;11.64;67.03;102165.09;4957305;28;19925;-54
2022/09/21 01:20:40;;;;;;;;;;;;;;;11.66;67.15;102158.81;4936263;28;20064;-53
2022/09/21 01:23:26;;;;;;;;;;;;;;;11.70;67.05;102172.78;4936507;28;19926;-53
2022/09/21 01:25:58;;;;;;;;;;;;;;;11.73;67.09;102164.72;4911453;28;19922;-54
2022/09/21 01:28:42;;;;;;;;;;;;;;;11.73;66.96;102155.03;4964192;28;19921;-53
2022/09/21 01:31:12;;;;;;;;;;;;;;;11.74;66.93;102166.44;4957623;28;20064;-53
2022/09/21 01:33:43;;;;;;;;;;;;;;;11.73;67.00;102162.94;4958701;28;20608;-52
2022/09/21 01:36:10;;;;;;;;;;;;;;;11.74;66.97;102153.25;4960918;28;20008;-53
2022/09/21 01:38:57;;;;;;;;;;;;;;;11.76;66.93;102161.97;4953511;28;19926;-53
2022/09/21 01:41:24;;;;;;;;;;;;;;;11.77;67.04;102155.78;4963687;28;19922;-53
2022/09/21 01:43:55;;;;;;;;;;;;;;;11.77;66.79;102161.03;4957933;28;20211;-53
2022/09/21 01:46:21;;;;;;;;;;;;;;;11.77;67.00;102154.94;4963706;28;19937;-53
2022/09/21 01:48:49;;;;;;;;;;;;;;;11.77;66.93;102154.94;4964609;28;19921;-53
2022/09/21 01:51:15;;;;;;;;;;;;;;;11.78;67.02;102152.22;4964763;28;19965;-53
2022/09/21 01:53:51;;;;;;;;;;;;;;;11.77;67.09;102150.50;4960208;28;19930;-54
2022/09/21 01:56:23;;;;;;;;;;;;;;;11.76;67.00;102143.50;4957074;28;19930;-54
2022/09/21 01:59:02;;;;;;;;;;;;;;;11.77;67.10;102149.66;4956542;28;19961;-52
2022/09/21 02:01:29;;;;;;;;;;;;;;;11.78;67.11;102154.84;4957640;28;20069;-53
2022/09/21 02:03:58;;;;;;;;;;;;;;;11.79;67.24;102159.22;4958239;28;19922;-53
2022/09/21 02:06:27;;;;;;;;;;;;;;;11.79;67.24;102153.94;4956904;28;20013;-53
2022/09/21 02:08:53;;;;;;;;;;;;;;;11.79;67.23;102153.94;4955968;28;20559;-55
2022/09/21 02:11:19;;;;;;;;;;;;;;;11.80;67.22;102155.66;4962701;28;19965;-54
2022/09/21 02:13:45;;;;;;;;;;;;;;;11.81;67.35;102162.66;4963651;28;19973;-54
2022/09/21 02:16:23;;;;;;;;;;;;;;;11.82;67.34;102160.84;4957344;28;20009;-53
2022/09/21 02:19:08;;;;;;;;;;;;;;;11.81;67.30;102157.38;4955603;28;20283;-53
2022/09/21 02:21:48;;;;;;;;;;;;;;;11.81;67.32;102157.38;4951212;28;20397;-53
2022/09/21 02:24:19;;;;;;;;;;;;;;;11.84;67.10;102161.66;4959604;28;20053;-53
2022/09/21 02:26:49;;;;;;;;;;;;;;;11.83;67.19;102160.81;4958863;28;19929;-53
2022/09/21 02:29:26;;;;;;;;;;;;;;;11.83;67.15;102158.16;4962560;28;19929;-53
2022/09/21 02:31:57;;;;;;;;;;;;;;;11.83;66.98;102150.25;4957542;28;19922;-52
2022/09/21 02:34:22;;;;;;;;;;;;;;;11.84;66.93;102161.66;4961290;28;19926;-53
2022/09/21 02:36:55;;;;;;;;;;;;;;;11.84;67.04;102156.38;4962472;28;19933;-52
2022/09/21 02:39:28;;;;;;;;;;;;;;;11.84;67.06;102162.53;4960263;28;20532;-54
2022/09/21 02:42:01;;;;;;;;;;;;;;;11.84;66.81;102159.88;4963142;28;19925;-53
2022/09/21 02:44:41;;;;;;;;;;;;;;;11.85;67.00;102158.09;4963443;28;19972;-53
2022/09/21 02:47:09;;;;;;;;;;;;;;;11.84;66.80;102157.25;4958584;28;19926;-53
2022/09/21 02:49:37;;;;;;;;;;;;;;;11.85;67.07;102160.72;4959771;28;19957;-53
2022/09/21 02:52:06;;;;;;;;;;;;;;;11.85;67.12;102161.59;4961669;28;20012;-53
2022/09/21 02:54:33;;;;;;;;;;;;;;;11.86;66.87;102159.81;4965045;28;19926;-52
2022/09/21 02:56:59;;;;;;;;;;;;;;;11.86;66.87;102160.69;4962233;28;20302;-53
2022/09/21 02:59:26;;;;;;;;;;;;;;;11.86;67.12;102163.31;4956182;28;19922;-54
2022/09/21 03:01:52;;;;;;;;;;;;;;;11.86;66.93;102159.81;4956668;28;19926;-52
2022/09/21 03:04:17;;;;;;;;;;;;;;;11.85;66.98;102166.88;4956377;28;19930;-54
2022/09/21 03:06:42;;;;;;;;;;;;;;;11.85;67.12;102169.53;4955203;28;19922;-52
2022/09/21 03:09:07;;;;;;;;;;;;;;;11.86;66.99;102170.38;4957493;28;20430;-53
2022/09/21 03:11:34;;;;;;;;;;;;;;;11.85;66.99;102177.44;4955258;28;19926;-54
2022/09/21 03:14:01;;;;;;;;;;;;;;;11.85;66.98;102177.44;4955863;28;20913;-53
2022/09/21 03:16:28;;;;;;;;;;;;;;;11.86;67.18;102183.56;4959330;28;19989;-53
2022/09/21 03:18:53;;;;;;;;;;;;;;;11.86;67.06;102178.28;4961723;28;19929;-53
2022/09/21 03:21:18;;;;;;;;;;;;;;;11.85;67.04;102174.78;4959482;28;19994;-53
2022/09/21 03:23:44;;;;;;;;;;;;;;;11.86;66.98;102178.28;4961671;28;20049;-55
2022/09/21 03:26:09;;;;;;;;;;;;;;;11.87;67.16;102175.56;4958149;28;20024;-53
2022/09/21 03:28:34;;;;;;;;;;;;;;;11.87;67.11;102183.47;4956059;28;20114;-54
2022/09/21 03:31:00;;;;;;;;;;;;;;;11.87;67.22;102186.13;4962097;28;19969;-53
2022/09/21 03:33:25;;;;;;;;;;;;;;;11.87;67.06;102183.47;4968499;28;19958;-53
2022/09/21 03:35:51;;;;;;;;;;;;;;;11.86;67.30;102184.44;4965892;28;20482;-53
2022/09/21 03:38:17;;;;;;;;;;;;;;;11.89;67.09;102186.91;4962268;28;19924;-53
2022/09/21 03:40:48;;;;;;;;;;;;;;;11.89;67.17;102186.91;4959681;28;19922;-52
2022/09/21 03:43:14;;;;;;;;;;;;;;;11.90;67.18;102188.63;4958929;28;19981;-53
2022/09/21 03:45:41;;;;;;;;;;;;;;;11.90;67.35;102188.63;4963438;28;20379;-53
2022/09/21 03:48:07;;;;;;;;;;;;;;;11.93;67.26;102192.06;4958442;28;19922;-53
2022/09/21 03:50:32;;;;;;;;;;;;;;;11.93;67.08;102182.41;4957551;28;19929;-54
2022/09/21 03:52:58;;;;;;;;;;;;;;;11.95;67.16;102190.25;4959534;28;19976;-53
2022/09/21 03:55:25;;;;;;;;;;;;;;;11.93;67.31;102186.81;4961454;28;19926;-53
2022/09/21 03:57:50;;;;;;;;;;;;;;;11.94;67.11;102188.53;4973533;28;19922;-53
2022/09/21 04:00:16;;;;;;;;;;;;;;;11.93;67.32;102192.06;4961430;28;19918;-54
2022/09/21 04:02:41;;;;;;;;;;;;;;;11.92;67.34;102191.22;4966350;28;20597;-52
2022/09/21 04:05:08;;;;;;;;;;;;;;;11.92;67.31;102199.16;4966951;28;19926;-52
2022/09/21 04:07:35;;;;;;;;;;;;;;;11.92;67.28;102193.00;4962639;28;19977;-53
2022/09/21 04:10:01;;;;;;;;;;;;;;;11.90;67.35;102193.06;4964147;28;20594;-53
2022/09/21 04:12:27;;;;;;;;;;;;;;;11.87;67.19;102199.31;4960026;28;19918;-54
2022/09/21 04:14:52;;;;;;;;;;;;;;;11.86;67.38;102202.00;4961548;28;19937;-53
2022/09/21 04:17:18;;;;;;;;;;;;;;;11.86;67.20;102207.28;4959077;28;19969;-53
2022/09/21 04:19:47;;;;;;;;;;;;;;;11.86;67.36;102204.66;4961588;28;19925;-53
2022/09/21 04:22:12;;;;;;;;;;;;;;;11.84;67.18;102214.41;4955723;28;20370;-53
2022/09/21 04:24:41;;;;;;;;;;;;;;;11.84;67.09;102207.38;4959303;28;19922;-52
2022/09/21 04:27:07;;;;;;;;;;;;;;;11.83;67.41;102210.91;4957491;28;20094;-54
2022/09/21 04:29:32;;;;;;;;;;;;;;;11.80;67.29;102202.28;4957234;28;19923;-53
2022/09/21 04:31:57;;;;;;;;;;;;;;;11.78;67.43;102204.97;4951545;28;19930;-52
2022/09/21 04:34:23;;;;;;;;;;;;;;;11.76;67.35;102206.78;4953914;28;20353;-52
2022/09/21 04:36:48;;;;;;;;;;;;;;;11.76;67.52;102212.06;4951728;28;19965;-53
2022/09/21 04:39:13;;;;;;;;;;;;;;;11.76;67.47;102204.16;4959931;28;19976;-54
2022/09/21 04:41:39;;;;;;;;;;;;;;;11.77;67.54;102208.50;4956856;28;19930;-53
2022/09/21 04:44:04;;;;;;;;;;;;;;;11.79;67.39;102209.31;4951538;28;19926;-54
2022/09/21 04:46:30;;;;;;;;;;;;;;;11.80;67.53;102207.56;4955915;28;20379;-53
2022/09/21 04:48:55;;;;;;;;;;;;;;;11.80;67.51;102208.41;4954395;28;20394;-53
2022/09/21 04:51:20;;;;;;;;;;;;;;;11.79;67.53;102201.41;4966965;28;19930;-53
2022/09/21 04:53:46;;;;;;;;;;;;;;;11.81;67.46;102206.59;4967353;28;19922;-55
2022/09/21 04:56:14;;;;;;;;;;;;;;;11.82;67.62;102205.69;4971354;28;19926;-55
2022/09/21 04:58:40;;;;;;;;;;;;;;;11.82;67.71;102206.56;4970814;28;20012;-55
2022/09/21 05:01:06;;;;;;;;;;;;;;;11.82;67.46;102208.31;4963614;28;20009;-56
2022/09/21 05:03:32;;;;;;;;;;;;;;;11.82;67.52;102208.31;4977059;28;19945;-56
2022/09/21 05:05:57;;;;;;;;;;;;;;;11.83;67.63;102216.19;4968101;28;20371;-54
2022/09/21 05:11:09;;;;;;;;;;;;;;;11.84;67.46;102220.56;4969167;28;19932;-54
2022/09/21 05:13:34;;;;;;;;;;;;;;;11.84;67.55;102223.19;4973823;28;19917;-55
2022/09/21 05:15:59;;;;;;;;;;;;;;;11.84;67.47;102225.81;4970134;28;20009;-53
2022/09/21 05:18:25;;;;;;;;;;;;;;;11.84;67.66;102228.47;4977153;28;20289;-58
2022/09/21 05:20:57;;;;;;;;;;;;;;;11.84;67.55;102230.22;4967286;28;19930;-54
2022/09/21 05:23:22;;;;;;;;;;;;;;;11.83;67.51;102228.50;4969582;28;19922;-54
2022/09/21 05:25:48;;;;;;;;;;;;;;;11.82;67.36;102226.78;4968313;28;19937;-55
2022/09/21 05:28:14;;;;;;;;;;;;;;;11.81;67.45;102231.22;4974160;28;20005;-54
2022/09/21 05:30:40;;;;;;;;;;;;;;;11.80;67.70;102237.41;4971248;28;19919;-54
2022/09/21 05:33:07;;;;;;;;;;;;;;;11.80;67.59;102234.78;4972940;28;19962;-54
2022/09/21 05:35:41;;;;;;;;;;;;;;;11.80;67.51;102245.31;4969492;28;19977;-54
2022/09/21 05:38:17;;;;;;;;;;;;;;;11.81;67.43;102241.75;4971076;28;19996;-54
2022/09/21 05:40:43;;;;;;;;;;;;;;;11.83;67.68;102242.56;4966607;28;20377;-54
2022/09/21 05:43:09;;;;;;;;;;;;;;;11.85;67.66;102240.72;4968932;28;19917;-54
2022/09/21 05:45:36;;;;;;;;;;;;;;;11.86;67.71;102245.09;4970407;28;19922;-54
2022/09/21 05:48:05;;;;;;;;;;;;;;;11.85;67.73;102239.84;4974614;28;20325;-54
2022/09/21 05:50:40;;;;;;;;;;;;;;;11.84;67.51;102246.94;4966623;28;19949;-54
2022/09/21 05:53:26;;;;;;;;;;;;;;;11.85;67.62;102243.38;4975151;28;20205;-55
2022/09/21 05:55:56;;;;;;;;;;;;;;;11.87;67.59;102249.41;4970145;28;19965;-55
2022/09/21 05:58:39;;;;;;;;;;;;;;;11.87;67.48;102244.13;4965578;28;19930;-54
2022/09/21 06:01:10;;;;;;;;;;;;;;;11.89;67.68;102249.38;4969907;28;19918;-54
2022/09/21 06:03:37;;;;;;;;;;;;;;;11.88;67.74;102251.13;4963317;28;19964;-54
2022/09/21 06:06:02;;;;;;;;;;;;;;;11.88;67.60;102253.78;4969067;28;19918;-54
2022/09/21 06:08:28;;;;;;;;;;;;;;;11.89;67.52;102263.41;4971502;28;19926;-54
2022/09/21 06:10:53;;;;;;;;;;;;;;;11.89;67.62;102263.41;4969533;28;19936;-54
2022/09/21 06:13:19;;;;;;;;;;;;;;;11.89;67.83;102260.78;4970151;28;19965;-55
2022/09/21 06:15:44;;;;;;;;;;;;;;;11.88;67.72;102258.22;4971369;28;20037;-54
2022/09/21 06:18:09;;;;;;;;;;;;;;;11.88;67.92;102272.25;4970531;28;20527;-54
2022/09/21 06:20:35;;;;;;;;;;;;;;;11.88;67.70;102264.31;4968827;28;19926;-53
2022/09/21 06:23:05;;;;;;;;;;;;;;;11.89;67.67;102271.31;4970165;28;20290;-54
2022/09/21 06:25:30;;;;;;;;;;;;;;;11.90;67.87;102270.41;4972616;28;19918;-54
2022/09/21 06:28:00;;;;;;;;;;;;;;;11.90;67.76;102273.03;4965477;28;19945;-56
2022/09/21 06:30:25;;;;;;;;;;;;;;;11.89;67.71;102279.22;4968781;28;19948;-55
2022/09/21 06:32:50;;;;;;;;;;;;;;;11.89;67.75;102275.75;4963363;28;20309;-54
2022/09/21 06:35:16;;;;;;;;;;;;;;;11.91;67.97;102276.56;4965319;28;20330;-54
2022/09/21 06:37:41;;;;;;;;;;;;;;;11.90;67.76;102274.84;4969295;28;20013;-54
2022/09/21 06:40:07;;;;;;;;;;;;;;;11.92;67.84;102275.63;4969018;28;19927;-53
2022/09/21 06:42:32;;;;;;;;;;;;;;;11.94;67.79;102278.22;4970353;28;19926;-54
2022/09/21 06:44:57;;;;;;;;;;;;;;;11.95;68.10;102285.19;4962835;28;19930;-55
2022/09/21 06:47:23;;;;;;;;;;;;;;;11.97;67.86;102281.56;4964669;28;19985;-54
2022/09/21 06:49:48;;;;;;;;;;;;;;;12.01;67.89;102285.00;4969423;28;19922;-54
2022/09/21 06:52:13;;;;;;;;;;;;;;;12.02;68.05;102281.44;4966839;28;19926;-54
2022/09/21 06:54:39;;;;;;;;;;;;;;;12.06;67.88;102282.19;4973050;28;19975;-54
2022/09/21 06:57:05;;;;;;;;;;;;;;;12.07;67.93;102290.03;4969752;28;19933;-53
2022/09/21 06:59:30;;;;;;;;;;;;;;;12.10;68.04;102287.28;4970307;28;20198;-54
2022/09/21 07:01:57;;;;;;;;;;;;;;;12.14;68.06;102286.25;4967030;28;19929;-55
2022/09/21 07:04:23;;;;;;;;;;;;;;;12.18;67.97;102287.81;4966131;28;20400;-53
2022/09/21 07:06:49;;;;;;;;;;;;;;;12.21;68.01;102286.84;4967308;28;19918;-54
2022/09/21 07:09:14;;;;;;;;;;;;;;;12.26;68.02;102294.59;4972850;28;19929;-53
2022/09/21 07:11:40;;;;;;;;;;;;;;;12.30;68.17;102296.19;4975080;28;19918;-54
2022/09/21 07:14:06;;;;;;;;;;;;;;;12.34;68.16;102303.91;4967472;28;19933;-55
2022/09/21 07:16:32;;;;;;;;;;;;;;;12.43;68.27;102302.69;4969064;28;20326;-54
2022/09/21 07:18:57;;;;;;;;;;;;;;;12.50;67.88;102309.41;4974688;28;20065;-55
2022/09/21 07:21:22;;;;;;;;;;;;;;;12.59;67.97;102302.06;4966643;28;20433;-54
2022/09/21 07:23:48;;;;;;;;;;;;;;;12.63;68.11;102301.84;4967654;28;19926;-56
2022/09/21 07:26:14;;;;;;;;;;;;;;;12.70;68.03;102307.75;4967833;28;19930;-54
2022/09/21 07:28:39;;;;;;;;;;;;;;;12.77;68.08;102305.69;4970910;28;19918;-55
2022/09/21 07:31:07;;;;;;;;;;;;;;;12.83;67.97;102301.94;4963089;28;19923;-54
2022/09/21 07:33:33;;;;;;;;;;;;;;;12.90;67.81;102309.53;4974571;28;19934;-54
2022/09/21 07:35:59;;;;;;;;;;;;;;;12.98;67.93;102308.38;4969906;28;19929;-54
2022/09/21 07:38:25;;;;;;;;;;;;;;;13.03;67.94;102309.88;4964243;28;19930;-54
2022/09/21 07:40:50;;;;;;;;;;;;;;;13.09;68.00;102306.94;4970259;28;19918;-54
2022/09/21 07:43:16;;;;;;;;;;;;;;;13.14;67.96;102304.13;4972015;28;19937;-56
2022/09/21 07:45:42;;;;;;;;;;;;;;;13.18;67.89;102310.13;4970886;28;19973;-54
2022/09/21 07:48:10;;;;;;;;;;;;;;;13.22;68.01;102306.44;4968867;28;19918;-54
2022/09/21 07:50:35;;;;;;;;;;;;;;;13.24;68.06;102305.44;4967826;28;20961;-54
2022/09/21 07:53:01;;;;;;;;;;;;;;;13.28;67.91;102300.88;4971540;28;19931;-54
2022/09/21 07:55:27;;;;;;;;;;;;;;;13.30;67.93;102304.31;4971859;28;20416;-53
2022/09/21 08:00:37;;;;;;;;;;;;;;;13.35;68.01;102302.31;4967738;28;19928;-54
2022/09/21 08:03:02;;;;;;;;;;;;;;;13.39;68.13;102306.53;4970049;28;19941;-54
2022/09/21 08:05:28;;;;;;;;;;;;;;;13.45;68.11;102307.22;4974607;28;19918;-54
2022/09/21 08:07:56;;;;;;;;;;;;;;;13.47;68.12;102305.38;4973028;28;19926;-53
2022/09/21 08:10:23;;;;;;;;;;;;;;;13.51;68.29;102306.97;4970798;28;19933;-53
2022/09/21 08:12:48;;;;;;;;;;;;;;;13.58;68.13;102313.66;4966957;28;19949;-54
2022/09/21 08:15:13;;;;;;;;;;;;;;;13.65;68.03;102304.53;4970226;28;19922;-55
2022/09/21 08:17:39;;;;;;;;;;;;;;;13.72;68.05;102305.97;4968054;28;20306;-54
2022/09/21 08:20:04;;;;;;;;;;;;;;;13.79;68.05;102318.91;4969824;28;20331;-54
2022/09/21 08:22:30;;;;;;;;;;;;;;;13.86;68.05;102320.34;4972067;28;20306;-56
2022/09/21 08:24:56;;;;;;;;;;;;;;;13.96;67.99;102307.53;4968427;28;20008;-54
2022/09/21 08:27:22;;;;;;;;;;;;;;;14.03;67.92;102304.53;4972212;28;19922;-54
2022/09/21 08:29:47;;;;;;;;;;;;;;;14.13;67.73;102312.03;4967076;28;19922;-54
2022/09/21 08:32:12;;;;;;;;;;;;;;;14.22;67.57;102301.00;4969997;28;19930;-54
2022/09/21 08:34:37;;;;;;;;;;;;;;;14.31;67.51;102303.19;4970989;28;24198;-53
2022/09/21 08:37:03;;;;;;;;;;;;;;;14.40;67.39;102301.88;4970164;28;20394;-54
2022/09/21 08:39:28;;;;;;;;;;;;;;;14.48;67.18;102309.44;4973958;28;19918;-54
2022/09/21 08:42:09;;;;;;;;;;;;;;;14.52;67.07;102312.84;4972759;28;20400;-53
2022/09/21 08:44:38;;;;;;;;;;;;;;;14.57;67.07;102303.72;4969624;28;20374;-53
2022/09/21 08:47:07;;;;;;;;;;;;;;;14.61;66.99;102315.84;4961767;28;19918;-53
2022/09/21 08:49:34;;;;;;;;;;;;;;;14.67;66.93;102314.69;4970253;28;20457;-55
2022/09/21 08:52:02;;;;;;;;;;;;;;;14.73;66.67;102303.81;4966576;28;19918;-54
2022/09/21 08:54:29;;;;;;;;;;;;;;;14.78;66.45;102316.84;4970002;28;19922;-54
2022/09/21 08:56:55;;;;;;;;;;;;;;;14.80;66.22;102312.31;4968034;28;19925;-55
2022/09/21 08:59:20;;;;;;;;;;;;;;;14.84;65.92;102305.94;4969257;28;19930;-54
2022/09/21 09:01:48;;;;;;;;;;;;;;;14.86;65.91;102313.78;4968839;28;20017;-55
2022/09/21 09:04:30;;;;;;;;;;;;;;;14.90;65.26;102323.31;4971659;28;19988;-55
2022/09/21 09:07:01;;;;;;;;;;;;;;;14.91;65.01;102315.28;4968954;28;19926;-55
2022/09/21 09:09:42;;;;;;;;;;;;;;;14.93;65.18;102316.06;4966186;28;19918;-56
2022/09/21 09:12:13;;;;;;;;;;;;;;;14.98;64.72;102318.47;4969929;28;19929;-53
2022/09/21 09:14:41;;;;;;;;;;;;;;;15.00;64.83;102323.69;4967027;28;20386;-54
2022/09/21 09:17:26;;;;;;;;;;;;;;;15.05;64.89;102319.88;4967139;28;19922;-54
2022/09/21 09:20:01;;;;;;;;;;;;;;;15.14;64.81;102322.97;4967023;28;19925;-55
2022/09/21 09:22:29;;;;;;;;;;;;;;;15.19;64.76;102316.53;4968973;28;19918;-54
2022/09/21 09:24:57;;;;;;;;;;;;;;;15.21;64.51;102314.63;4964619;28;19969;-53
2022/09/21 09:27:35;;;;;;;;;;;;;;;15.22;64.63;102316.34;4969224;28;19933;-54
2022/09/21 09:30:01;;;;;;;;;;;;;;;15.23;64.48;102318.06;4968721;28;19969;-54
2022/09/21 09:32:30;;;;;;;;;;;;;;;15.23;64.48;102315.41;4970019;28;19953;-54
2022/09/21 09:35:25;;;;;;;;;;;;;;;15.24;64.43;102313.63;4968519;28;19918;-55
2022/09/21 09:37:53;;;;;;;;;;;;;;;15.23;64.37;102309.25;4958146;28;19926;-54
2022/09/21 09:40:29;;;;;;;;;;;;;;;15.24;64.01;102305.66;4961839;28;19918;-55
2022/09/21 09:43:01;;;;;;;;;;;;;;;15.24;63.93;102311.81;4968454;28;19914;-54
2022/09/21 09:45:30;;;;;;;;;;;;;;;15.24;63.90;102309.16;4969156;28;19922;-55
2022/09/21 09:48:13;;;;;;;;;;;;;;;15.26;63.65;102311.75;4966885;28;20340;-54
2022/09/21 09:50:40;;;;;;;;;;;;;;;15.28;63.89;102314.31;4968684;28;19922;-54
2022/09/21 09:53:05;;;;;;;;;;;;;;;15.29;63.71;102326.63;4969849;28;20005;-55
2022/09/21 09:55:36;;;;;;;;;;;;;;;15.29;63.87;102321.34;4969359;28;20021;-54
2022/09/21 09:58:02;;;;;;;;;;;;;;;15.30;63.53;102315.09;4968748;28;19926;-55
2022/09/21 10:00:28;;;;;;;;;;;;;;;15.31;63.41;102314.16;4967536;28;19969;-54
2022/09/21 10:02:54;;;;;;;;;;;;;;;15.33;63.12;102323.72;4970073;28;19918;-54
2022/09/21 10:05:21;;;;;;;;;;;;;;;15.36;62.64;102320.94;4969588;28;20029;-53
2022/09/21 10:07:47;;;;;;;;;;;;;;;15.37;62.31;102319.13;4969063;28;19917;-54
2022/09/21 10:10:28;;;;;;;;;;;;;;;15.37;62.21;102319.13;4968654;28;20620;-53
2022/09/21 10:12:55;;;;;;;;;;;;;;;15.37;62.23;102313.81;4967525;28;20125;-54
2022/09/21 10:15:22;;;;;;;;;;;;;;;15.38;62.34;102319.06;4968214;28;19976;-54
2022/09/21 10:17:56;;;;;;;;;;;;;;;15.39;62.20;102317.25;4968785;28;19930;-55
2022/09/21 10:20:21;;;;;;;;;;;;;;;15.40;62.23;102313.66;4968418;28;20386;-55
2022/09/21 10:22:52;;;;;;;;;;;;;;;15.40;62.05;102308.34;4967502;28;19985;-54
2022/09/21 10:25:19;;;;;;;;;;;;;;;15.43;62.09;102324.09;4968318;28;19921;-54
2022/09/21 10:27:46;;;;;;;;;;;;;;;15.45;61.79;102321.38;4967845;28;20017;-55
2022/09/21 10:30:32;;;;;;;;;;;;;;;15.48;61.76;102321.22;4972101;28;19958;-54
2022/09/21 10:32:58;;;;;;;;;;;;;;;15.52;61.80;102315.66;4965221;28;19929;-56
2022/09/21 10:35:24;;;;;;;;;;;;;;;15.56;61.82;102313.72;4968482;28;19926;-54
2022/09/21 10:38:08;;;;;;;;;;;;;;;15.58;61.38;102313.63;4966836;28;20350;-53
2022/09/21 10:40:35;;;;;;;;;;;;;;;15.57;61.17;102315.44;4968830;28;19918;-54
2022/09/21 10:43:00;;;;;;;;;;;;;;;15.58;61.25;102310.97;4985265;28;19925;-54
2022/09/21 10:45:25;;;;;;;;;;;;;;;15.60;61.21;102312.56;4971529;28;19918;-53
2022/09/21 10:47:53;;;;;;;;;;;;;;;15.62;61.18;102310.69;4968386;28;19922;-54
2022/09/21 10:50:39;;;;;;;;;;;;;;;15.64;61.11;102310.63;4967858;28;19924;-54
2022/09/21 10:53:24;;;;;;;;;;;;;;;15.65;61.03;102310.53;4969284;28;19918;-54
2022/09/21 10:56:04;;;;;;;;;;;;;;;15.65;60.26;102312.34;4966799;28;19922;-53
2022/09/21 10:58:30;;;;;;;;;;;;;;;15.62;59.82;102302.75;4965052;28;19925;-53
2022/09/21 11:01:08;;;;;;;;;;;;;;;15.60;59.81;102303.78;4968711;28;19925;-52
2022/09/21 11:03:52;;;;;;;;;;;;;;;15.58;59.60;102310.97;4968931;28;19941;-54
2022/09/21 11:06:22;;;;;;;;;;;;;;;15.59;59.67;102308.22;4967547;28;19988;-53
2022/09/21 11:08:52;;;;;;;;;;;;;;;15.63;59.61;102309.78;4964961;28;19918;-53
2022/09/21 11:11:26;;;;;;;;;;;;;;;15.70;59.76;102307.63;4968106;28;19926;-53
2022/09/21 11:13:59;;;;;;;;;;;;;;;15.80;59.61;102297.38;4965345;28;19929;-54
2022/09/21 11:16:30;;;;;;;;;;;;;;;15.90;59.42;102290.63;4967818;28;19922;-54
2022/09/21 11:19:07;;;;;;;;;;;;;;;15.98;59.33;102299.03;4969590;28;19914;-55
2022/09/21 11:21:39;;;;;;;;;;;;;;;16.08;58.98;102293.22;4965562;28;20344;-54
2022/09/21 11:24:13;;;;;;;;;;;;;;;16.15;58.73;102295.44;4969390;28;19918;-53
2022/09/21 11:26:43;;;;;;;;;;;;;;;16.25;58.63;102300.22;4965187;28;19949;-53
2022/09/21 11:29:11;;;;;;;;;;;;;;;16.28;57.64;102300.03;4964331;28;19919;-56
2022/09/21 11:32:01;;;;;;;;;;;;;;;16.28;57.38;102292.94;4962258;28;19927;-54
2022/09/21 11:34:39;;;;;;;;;;;;;;;16.27;57.45;102293.00;4966925;28;20333;-53
2022/09/21 11:37:11;;;;;;;;;;;;;;;16.26;57.50;102296.63;4966262;28;19930;-52
2022/09/21 11:39:48;;;;;;;;;;;;;;;16.23;57.40;102296.81;4968884;28;19922;-52
2022/09/21 11:42:17;;;;;;;;;;;;;;;16.22;57.40;102287.97;4967940;28;20267;-55
2022/09/21 11:44:48;;;;;;;;;;;;;;;16.22;57.31;102295.94;4968746;28;19969;-53
2022/09/21 11:47:17;;;;;;;;;;;;;;;16.26;57.28;102286.84;4969356;28;20095;-53
2022/09/21 11:49:54;;;;;;;;;;;;;;;16.33;57.06;102292.66;4972514;28;19966;-54
2022/09/21 11:52:35;;;;;;;;;;;;;;;16.44;56.69;102289.41;4965501;28;20020;-54
2022/09/21 11:55:20;;;;;;;;;;;;;;;16.49;56.32;102276.69;4971881;28;19981;-52
2022/09/21 11:57:56;;;;;;;;;;;;;;;16.55;56.18;102286.97;4970428;28;19974;-53
2022/09/21 12:00:23;;;;;;;;;;;;;;;16.57;56.02;102285.06;4971233;28;20662;-53
2022/09/21 12:02:54;;;;;;;;;;;;;;;16.59;55.70;102288.50;4972576;28;19930;-54
2022/09/21 12:05:26;;;;;;;;;;;;;;;16.59;55.43;102277.00;4971862;28;20289;-53
2022/09/21 12:08:03;;;;;;;;;;;;;;;16.57;55.26;102278.88;4970700;28;19940;-53
2022/09/21 12:10:47;;;;;;;;;;;;;;;16.56;54.68;102278.03;4969647;28;19922;-53
2022/09/21 12:13:25;;;;;;;;;;;;;;;16.56;54.84;102271.88;4968877;28;19972;-54
2022/09/21 12:16:10;;;;;;;;;;;;;;;16.59;54.98;102274.34;4967569;28;19922;-53
2022/09/21 12:18:51;;;;;;;;;;;;;;;16.64;54.44;102266.97;4969712;28;19944;-54
2022/09/21 12:21:17;;;;;;;;;;;;;;;16.67;54.10;102264.13;4969108;28;19925;-55
2022/09/21 12:23:45;;;;;;;;;;;;;;;16.73;54.21;102266.41;4969717;28;19922;-54
2022/09/21 12:26:14;;;;;;;;;;;;;;;16.83;54.17;102277.34;4966824;28;20413;-53
2022/09/21 12:28:49;;;;;;;;;;;;;;;16.91;53.89;102271.56;4969524;28;19930;-55
2022/09/21 12:31:25;;;;;;;;;;;;;;;16.99;53.80;102274.66;4966417;28;19961;-54
2022/09/21 12:33:53;;;;;;;;;;;;;;;17.03;53.38;102268.19;4969736;28;20442;-54
2022/09/21 12:36:46;;;;;;;;;;;;;;;17.05;52.77;102266.28;4969367;28;19922;-54
2022/09/21 12:39:27;;;;;;;;;;;;;;;17.09;52.93;102276.75;4966203;28;20065;-53
2022/09/21 12:42:11;;;;;;;;;;;;;;;17.10;52.68;102267.81;4969405;28;19921;-54
2022/09/21 12:44:51;;;;;;;;;;;;;;;17.08;52.38;102267.06;4970065;28;19965;-53
2022/09/21 12:47:31;;;;;;;;;;;;;;;16.98;52.76;102270.28;4969189;28;20006;-53
2022/09/21 12:50:01;;;;;;;;;;;;;;;16.89;53.06;102268.16;4971709;28;19925;-53
2022/09/21 12:52:27;;;;;;;;;;;;;;;16.80;53.28;102272.22;4967810;28;19961;-54